Time;durP1;ratioP1;P1;durP2;ratioP2;P2;SDS_P1;SDS_P2;PMS_P1;PMS_P2;Temp;Humidity;BMP_temperature;BMP_pressure;BME280_temperature;BME280_humidity;BME280_pressure;Samples;Min_cycle;Max_cycle;Signal;HPM_P1;HPM_P2
2021/12/29 00:06:11;;;;;;;4.03;2.40;;;0.00;99.90;;;;;;20991732;28;20029;-49
2021/12/29 00:16:16;;;;;;;2.65;1.05;;;0.00;99.90;;;;;;20990860;28;20052;-49
2021/12/29 00:26:18;;;;;;;4.63;2.05;;;0.00;99.90;;;;;;21045133;28;20416;-50
2021/12/29 00:36:21;;;;;;;3.55;1.38;;;-0.10;99.90;;;;;;21073002;28;20040;-49
2021/12/29 00:46:42;;;;;;;2.80;1.35;;;-0.10;99.90;;;;;;21071532;28;20124;-52
2021/12/29 00:56:45;;;;;;;1.80;0.50;;;0.00;99.90;;;;;;21071318;28;20032;-51
2021/12/29 01:06:48;;;;;;;1.00;0.30;;;0.60;99.90;;;;;;21070998;28;20553;-49
2021/12/29 01:16:51;;;;;;;1.65;1.00;;;1.00;99.90;;;;;;21070127;28;20400;-49
2021/12/29 01:26:55;;;;;;;2.47;1.27;;;1.50;99.90;;;;;;21068722;28;20048;-49
2021/12/29 01:36:58;;;;;;;2.58;1.02;;;1.20;99.90;;;;;;21068347;28;20028;-49
2021/12/29 01:47:02;;;;;;;2.45;1.08;;;1.10;99.90;;;;;;21067383;28;20028;-48
2021/12/29 01:57:07;;;;;;;1.85;1.00;;;1.00;99.90;;;;;;21066513;28;20085;-48
2021/12/29 02:07:10;;;;;;;0.55;0.20;;;0.80;99.90;;;;;;21066306;28;20052;-49
2021/12/29 02:17:14;;;;;;;0.47;0.20;;;0.80;99.90;;;;;;21049371;28;20040;-48
2021/12/29 02:27:16;;;;;;;0.47;0.20;;;1.00;99.90;;;;;;21065598;28;20040;-49
2021/12/29 02:37:20;;;;;;;0.57;0.20;;;1.50;99.90;;;;;;21048955;28;20036;-51
2021/12/29 02:47:22;;;;;;;0.45;0.28;;;2.00;99.90;;;;;;21064838;28;20036;-49
2021/12/29 02:57:25;;;;;;;0.20;0.10;;;1.70;99.90;;;;;;21064764;28;20089;-50
2021/12/29 03:07:27;;;;;;;0.20;0.20;;;1.40;99.90;;;;;;21075799;28;20061;-52
2021/12/29 03:17:31;;;;;;;0.65;0.17;;;1.40;99.90;;;;;;21062737;28;20052;-50
2021/12/29 03:27:33;;;;;;;0.82;0.15;;;1.60;99.90;;;;;;21061915;28;20082;-50
2021/12/29 03:37:37;;;;;;;0.10;0.00;;;1.50;99.90;;;;;;21077982;28;20093;-49
2021/12/29 03:47:40;;;;;;;0.40;0.10;;;1.50;99.90;;;;;;21076762;28;20471;-52
2021/12/29 03:57:42;;;;;;;0.38;0.10;;;1.70;99.90;;;;;;21076357;28;20079;-48
2021/12/29 04:07:46;;;;;;;0.28;0.10;;;2.00;99.90;;;;;;21075694;28;20089;-50
2021/12/29 04:17:51;;;;;;;0.22;0.00;;;2.20;99.90;;;;;;21075856;28;20159;-49
2021/12/29 04:27:57;;;;;;;0.00;0.00;;;2.00;99.90;;;;;;21074128;28;20039;-50
2021/12/29 04:37:59;;;;;;;0.00;0.00;;;1.80;99.90;;;;;;21073247;28;20024;-49
2021/12/29 04:48:02;;;;;;;0.10;0.03;;;1.70;99.90;;;;;;21072468;28;20031;-48
2021/12/29 04:58:05;;;;;;;0.10;0.00;;;1.80;99.90;;;;;;21071748;28;20035;-48
2021/12/29 05:08:28;;;;;;;0.00;0.00;;;1.90;99.90;;;;;;21071044;28;20578;-52
2021/12/29 05:18:34;;;;;;;0.00;0.00;;;2.50;99.90;;;;;;21070017;28;20036;-49
2021/12/29 05:28:38;;;;;;;0.00;0.00;;;2.60;99.90;;;;;;21068117;28;20082;-49
2021/12/29 05:38:40;;;;;;;0.35;0.10;;;2.30;99.90;;;;;;21068025;28;20085;-49
2021/12/29 05:48:43;;;;;;;0.00;0.00;;;2.10;99.90;;;;;;21067773;28;20036;-49
2021/12/29 05:58:46;;;;;;;0.10;0.10;;;2.10;99.90;;;;;;21066925;28;20054;-52
2021/12/29 06:08:48;;;;;;;0.05;0.00;;;2.10;99.90;;;;;;21066514;28;20044;-49
2021/12/29 06:18:51;;;;;;;0.17;0.05;;;2.00;99.90;;;;;;21066315;28;20036;-50
2021/12/29 06:28:54;;;;;;;0.20;0.10;;;2.20;99.90;;;;;;21065664;28;20975;-51
2021/12/29 06:38:57;;;;;;;0.10;0.00;;;2.20;99.90;;;;;;21074146;28;20032;-49
2021/12/29 06:49:00;;;;;;;0.15;0.10;;;2.10;99.90;;;;;;21081825;28;20105;-49
2021/12/29 06:59:03;;;;;;;0.10;0.00;;;1.80;99.90;;;;;;21081257;28;20479;-50
2021/12/29 07:09:05;;;;;;;0.00;0.00;;;1.70;99.90;;;;;;21084215;28;20456;-52
2021/12/29 07:19:08;;;;;;;0.00;0.00;;;1.80;99.90;;;;;;21079541;28;20085;-51
2021/12/29 07:29:10;;;;;;;0.40;0.00;;;2.10;99.90;;;;;;21078586;28;20032;-51
2021/12/29 07:39:14;;;;;;;0.20;0.10;;;2.30;99.90;;;;;;21078755;28;20479;-51
2021/12/29 07:49:17;;;;;;;0.17;0.00;;;2.60;99.90;;;;;;21075862;28;20395;-52
2021/12/29 07:59:20;;;;;;;1.50;0.00;;;3.20;99.90;;;;;;21077669;28;20100;-51
2021/12/29 08:09:23;;;;;;;0.00;0.00;;;3.80;99.90;;;;;;21074514;28;20040;-51
2021/12/29 08:19:26;;;;;;;0.00;0.00;;;4.30;99.90;;;;;;21074614;28;20040;-51
2021/12/29 08:29:29;;;;;;;0.00;0.00;;;5.30;99.90;;;;;;21073958;28;20086;-50
2021/12/29 08:39:32;;;;;;;0.10;0.00;;;5.50;99.90;;;;;;21072897;28;20066;-50
2021/12/29 08:49:35;;;;;;;12.73;4.53;;;6.30;99.90;;;;;;21072510;28;20386;-52
2021/12/29 08:59:38;;;;;;;3.38;1.38;;;6.60;99.20;;;;;;21069957;28;20039;-50
2021/12/29 09:09:40;;;;;;;0.10;0.00;;;6.40;99.60;;;;;;21071155;28;20052;-50
2021/12/29 09:19:44;;;;;;;0.00;0.00;;;7.30;97.40;;;;;;21069338;28;20101;-50
2021/12/29 09:29:46;;;;;;;0.00;0.00;;;8.50;93.80;;;;;;21069247;28;20032;-53
2021/12/29 09:39:50;;;;;;;0.90;0.00;;;9.30;92.00;;;;;;21069576;28;20070;-51
2021/12/29 09:49:52;;;;;;;0.00;0.00;;;9.60;89.20;;;;;;21067826;28;20040;-51
2021/12/29 09:59:55;;;;;;;0.00;0.00;;;9.90;84.60;;;;;;21067992;28;20040;-53
2021/12/29 10:09:58;;;;;;;0.38;0.08;;;10.00;88.80;;;;;;21066325;28;20066;-51
2021/12/29 10:20:11;;;;;;;0.00;0.00;;;10.70;82.30;;;;;;21066139;28;20040;-53
2021/12/29 10:30:32;;;;;;;0.00;0.00;;;11.00;79.50;;;;;;21065786;28;20032;-52
2021/12/29 10:40:35;;;;;;;0.00;0.00;;;11.00;78.10;;;;;;21066237;28;20086;-53
2021/12/29 10:50:38;;;;;;;0.30;0.00;;;11.60;75.00;;;;;;21065620;28;20040;-51
2021/12/29 11:00:44;;;;;;;0.10;0.00;;;11.40;75.30;;;;;;21065352;28;20129;-52
2021/12/29 11:10:47;;;;;;;0.88;0.00;;;11.30;74.60;;;;;;21048639;28;20074;-55
2021/12/29 11:20:56;;;;;;;0.10;0.10;;;11.40;73.80;;;;;;21064581;28;20032;-53
2021/12/29 11:31:02;;;;;;;0.45;0.00;;;11.70;70.80;;;;;;21080945;28;20032;-55
2021/12/29 11:41:06;;;;;;;0.00;0.00;;;11.60;72.80;;;;;;20985654;28;20048;-51
2021/12/29 11:51:10;;;;;;;0.20;0.03;;;11.60;70.10;;;;;;20968686;28;20493;-53
2021/12/29 12:01:31;;;;;;;0.20;0.00;;;11.40;69.40;;;;;;20967235;28;20502;-53
2021/12/29 12:11:35;;;;;;;0.00;0.00;;;11.40;72.50;;;;;;20966736;28;20389;-51
2021/12/29 12:21:40;;;;;;;0.35;0.10;;;11.40;70.60;;;;;;21017162;28;20487;-53
2021/12/29 12:31:47;;;;;;;0.28;0.10;;;11.20;80.00;;;;;;21074761;28;20100;-51
2021/12/29 12:41:56;;;;;;;0.82;0.30;;;11.20;79.70;;;;;;21072692;28;20044;-52
2021/12/29 12:52:04;;;;;;;0.10;0.10;;;11.20;83.40;;;;;;21072238;28;20036;-53
2021/12/29 13:02:19;;;;;;;0.98;0.35;;;10.90;80.40;;;;;;21071523;28;20036;-52
2021/12/29 13:12:30;;;;;;;0.60;0.20;;;11.00;82.60;;;;;;21053582;28;20040;-52
2021/12/29 13:22:35;;;;;;;1.17;0.50;;;10.60;84.90;;;;;;21069150;28;20061;-54
2021/12/29 13:32:56;;;;;;;2.10;0.30;;;10.10;83.70;;;;;;21069138;28;20090;-52
2021/12/29 13:43:00;;;;;;;0.50;0.30;;;9.80;87.70;;;;;;21069241;28;20478;-55
2021/12/29 13:53:06;;;;;;;0.50;0.32;;;9.30;84.90;;;;;;21067657;28;20480;-51
2021/12/29 14:03:10;;;;;;;2.35;0.45;;;8.70;89.10;;;;;;21068210;28;20032;-56
2021/12/29 14:13:17;;;;;;;1.88;0.30;;;8.10;90.80;;;;;;21068257;28;20032;-52
2021/12/29 14:23:30;;;;;;;0.57;0.10;;;7.60;90.70;;;;;;21066164;28;20074;-54
2021/12/29 14:33:42;;;;;;;0.40;0.13;;;7.70;86.60;;;;;;21065539;28;20392;-51
2021/12/29 14:43:57;;;;;;;0.45;0.20;;;8.00;87.30;;;;;;21066744;28;20036;-53
2021/12/29 14:54:12;;;;;;;0.50;0.30;;;8.20;87.70;;;;;;21065776;28;20036;-56
2021/12/29 15:04:21;;;;;;;0.43;0.10;;;8.00;86.40;;;;;;21078532;28;20036;-55
2021/12/29 15:14:25;;;;;;;0.15;0.00;;;7.50;85.70;;;;;;21079941;28;20065;-52
2021/12/29 15:24:27;;;;;;;0.10;0.00;;;7.70;84.20;;;;;;21079017;28;20105;-54
2021/12/29 15:34:30;;;;;;;0.13;0.00;;;7.70;86.90;;;;;;21078512;28;20512;-51
2021/12/29 15:44:32;;;;;;;0.00;0.00;;;7.00;82.80;;;;;;21077584;28;20061;-55
2021/12/29 15:54:35;;;;;;;0.08;0.00;;;6.90;83.10;;;;;;21076478;28;20032;-51
2021/12/29 16:04:38;;;;;;;0.10;0.00;;;7.00;80.80;;;;;;21075811;28;20085;-51
2021/12/29 16:14:42;;;;;;;0.20;0.00;;;6.90;80.30;;;;;;21074611;28;20117;-52
2021/12/29 16:24:45;;;;;;;0.38;0.10;;;6.70;81.50;;;;;;21074430;28;20036;-53
2021/12/29 16:34:48;;;;;;;0.10;0.00;;;7.00;81.80;;;;;;21073007;28;20032;-53
2021/12/29 16:44:50;;;;;;;0.25;0.10;;;6.60;80.90;;;;;;21072611;28;20040;-52
2021/12/29 16:54:52;;;;;;;0.20;0.10;;;6.50;82.60;;;;;;21072281;28;20028;-52
2021/12/29 17:04:55;;;;;;;0.30;0.00;;;6.50;82.50;;;;;;21070955;28;20040;-52
2021/12/29 17:14:58;;;;;;;1.35;0.10;;;6.40;81.50;;;;;;21070594;28;20445;-51
2021/12/29 17:25:01;;;;;;;0.65;0.03;;;6.50;82.10;;;;;;21068704;28;20073;-51
2021/12/29 17:35:09;;;;;;;0.15;0.00;;;6.30;82.20;;;;;;21069018;28;20032;-52
2021/12/29 17:45:17;;;;;;;0.20;0.00;;;6.30;82.70;;;;;;21069535;28;20450;-53
2021/12/29 17:55:20;;;;;;;0.17;0.00;;;6.40;82.60;;;;;;21067586;28;20452;-50
2021/12/29 18:05:23;;;;;;;0.30;0.10;;;6.50;84.20;;;;;;21067508;28;20032;-53
2021/12/29 18:15:27;;;;;;;0.10;0.00;;;6.50;85.50;;;;;;21066641;28;20411;-50
2021/12/29 18:25:30;;;;;;;0.00;0.00;;;6.10;87.60;;;;;;21065626;28;20032;-51
2021/12/29 18:35:32;;;;;;;0.10;0.00;;;6.00;88.80;;;;;;21075173;28;20100;-56
2021/12/29 18:45:35;;;;;;;0.30;0.10;;;6.20;87.70;;;;;;21065764;28;20070;-52
2021/12/29 18:55:39;;;;;;;0.93;0.10;;;6.30;87.70;;;;;;21081686;28;20036;-51
2021/12/29 19:05:46;;;;;;;0.28;0.10;;;6.40;89.50;;;;;;21063768;28;20036;-51
2021/12/29 19:15:49;;;;;;;0.45;0.10;;;5.90;90.50;;;;;;21079733;28;20576;-51
2021/12/29 19:25:51;;;;;;;0.40;0.10;;;6.30;90.40;;;;;;21078524;28;20123;-52
2021/12/29 19:35:55;;;;;;;0.10;0.00;;;6.40;91.60;;;;;;21078145;28;20036;-52
2021/12/29 19:45:58;;;;;;;0.52;0.10;;;6.20;92.10;;;;;;21076076;28;20062;-51
2021/12/29 19:56:00;;;;;;;0.82;0.10;;;6.10;92.30;;;;;;21076382;28;20089;-51
2021/12/29 20:06:03;;;;;;;0.43;0.10;;;7.00;90.80;;;;;;21076131;28;20036;-51
2021/12/29 20:16:10;;;;;;;0.10;0.08;;;7.00;90.60;;;;;;21075028;28;20568;-52
2021/12/29 20:26:15;;;;;;;0.88;0.20;;;6.70;91.60;;;;;;21073604;28;20399;-51
2021/12/29 20:36:18;;;;;;;0.60;0.10;;;6.60;92.00;;;;;;21073618;28;20032;-50
2021/12/29 20:46:21;;;;;;;0.43;0.10;;;6.60;92.10;;;;;;21072743;28;20028;-51
2021/12/29 20:56:26;;;;;;;0.63;0.10;;;6.50;92.70;;;;;;21072110;28;20043;-52
2021/12/29 21:06:29;;;;;;;0.20;0.10;;;6.50;92.30;;;;;;21070954;28;20040;-52
2021/12/29 21:16:34;;;;;;;0.10;0.08;;;6.90;91.70;;;;;;21069584;28;20044;-51
2021/12/29 21:26:41;;;;;;;0.70;0.20;;;6.70;92.10;;;;;;21069506;28;20078;-52
2021/12/29 21:36:43;;;;;;;0.13;0.00;;;6.30;93.00;;;;;;21069157;28;20032;-50
2021/12/29 21:46:46;;;;;;;0.20;0.10;;;6.10;93.80;;;;;;21067725;28;20055;-52
2021/12/29 21:56:48;;;;;;;0.10;0.10;;;6.10;94.10;;;;;;21067179;28;20040;-56
2021/12/29 22:06:52;;;;;;;0.20;0.10;;;6.10;94.40;;;;;;21066407;28;20044;-53
2021/12/29 22:16:55;;;;;;;0.20;0.10;;;6.20;94.80;;;;;;21066366;28;20052;-51
2021/12/29 22:26:58;;;;;;;0.52;0.10;;;5.80;95.40;;;;;;21066086;28;20105;-51
2021/12/29 22:37:01;;;;;;;0.30;0.10;;;5.60;96.20;;;;;;21050131;28;20028;-53
2021/12/29 22:47:04;;;;;;;3.92;0.30;;;5.30;97.00;;;;;;21065044;28;20097;-51
2021/12/29 22:57:07;;;;;;;0.20;0.10;;;5.10;98.10;;;;;;21064700;28;20094;-50
2021/12/29 23:07:09;;;;;;;0.50;0.10;;;4.70;99.30;;;;;;21064554;28;20090;-55
2021/12/29 23:17:12;;;;;;;0.10;0.00;;;4.60;99.90;;;;;;21064296;28;20445;-51
2021/12/29 23:37:36;;;;;;;0.82;0.17;;;5.40;99.90;;;;;;21078641;28;20035;-53
2021/12/29 23:47:38;;;;;;;0.08;0.00;;;5.00;99.90;;;;;;21077239;28;20032;-53
2021/12/29 23:57:41;;;;;;;0.35;0.10;;;4.50;99.90;;;;;;21077158;28;20054;-54
